Time;durP1;ratioP1;P1;durP2;ratioP2;P2;SDS_P1;SDS_P2;PMS_P1;PMS_P2;Temp;Humidity;BMP_temperature;BMP_pressure;BME280_temperature;BME280_humidity;BME280_pressure;Samples;Min_cycle;Max_cycle;Signal;HPM_P1;HPM_P2
2022/01/14 12:44:23;;;;;;;47.10;22.40;;;5.90;99.90;;;;;;4988365;28;20226;-95
2022/01/14 12:47:08;;;;;;;45.87;22.73;;;5.90;99.90;;;;;;4995920;28;20192;-94
2022/01/14 12:49:40;;;;;;;44.57;22.83;;;6.00;99.90;;;;;;4995932;28;20180;-94
2022/01/14 12:52:08;;;;;;;42.80;24.17;;;6.00;99.90;;;;;;4995970;28;20188;-91
2022/01/14 12:54:39;;;;;;;41.60;23.00;;;6.10;99.90;;;;;;4995268;28;20183;-94
2022/01/14 12:57:06;;;;;;;45.33;23.70;;;6.00;99.90;;;;;;4995793;28;20187;-90
2022/01/14 12:59:47;;;;;;;46.80;23.03;;;6.20;99.90;;;;;;4995274;28;20674;-90
2022/01/14 13:02:22;;;;;;;43.83;23.67;;;6.10;99.90;;;;;;4995742;28;20193;-92
2022/01/14 13:05:16;;;;;;;49.37;25.27;;;6.10;99.90;;;;;;4995320;28;20479;-92
2022/01/14 13:07:43;;;;;;;48.43;24.23;;;6.00;99.90;;;;;;4995699;28;20183;-91
2022/01/14 13:10:14;;;;;;;48.93;24.50;;;6.00;99.90;;;;;;4995394;28;20230;-91
2022/01/14 13:12:43;;;;;;;50.37;24.77;;;6.00;99.90;;;;;;4996266;28;20187;-94
2022/01/14 13:15:14;;;;;;;44.97;22.00;;;6.00;99.90;;;;;;4996528;28;20246;-95
2022/01/14 13:17:49;;;;;;;56.00;25.00;;;6.10;99.90;;;;;;4995987;28;20184;-93
2022/01/14 13:20:18;;;;;;;50.30;24.83;;;6.10;99.90;;;;;;4996169;28;20211;-94
2022/01/14 13:22:47;;;;;;;46.90;24.70;;;6.10;99.90;;;;;;4996075;28;20168;-94
2022/01/14 13:25:22;;;;;;;46.27;24.83;;;6.10;99.90;;;;;;4995311;28;20237;-95
2022/01/14 13:27:55;;;;;;;46.73;24.30;;;6.20;99.90;;;;;;4996044;28;20183;-94
2022/01/14 13:30:28;;;;;;;42.43;23.80;;;6.10;99.90;;;;;;4995632;28;20623;-94
2022/01/14 13:32:56;;;;;;;49.07;23.90;;;6.10;99.90;;;;;;4996113;28;20626;-93
2022/01/14 13:35:31;;;;;;;41.60;23.40;;;6.20;99.90;;;;;;4995566;28;20176;-94
2022/01/14 13:38:05;;;;;;;42.87;23.20;;;6.20;99.90;;;;;;4992337;28;20168;-91
2022/01/14 13:40:42;;;;;;;44.87;23.27;;;6.20;99.90;;;;;;4995364;28;20199;-90
2022/01/14 13:43:09;;;;;;;44.60;23.60;;;6.20;99.90;;;;;;4995065;28;20326;-91
2022/01/14 13:45:41;;;;;;;48.67;24.50;;;6.20;99.90;;;;;;4995549;28;20172;-90
2022/01/14 13:48:08;;;;;;;47.37;23.00;;;6.10;99.90;;;;;;4995319;28;20180;-93
2022/01/14 13:50:47;;;;;;;48.13;24.37;;;6.10;99.90;;;;;;4995640;28;20172;-92
2022/01/14 13:53:16;;;;;;;44.43;23.63;;;6.10;99.90;;;;;;4995829;28;20175;-93
2022/01/14 13:55:47;;;;;;;47.33;23.40;;;6.20;99.90;;;;;;4995488;28;20207;-93
2022/01/14 13:58:19;;;;;;;54.67;24.50;;;6.10;99.90;;;;;;4995403;28;20180;-92
2022/01/14 14:00:48;;;;;;;49.53;25.00;;;6.00;99.90;;;;;;4995410;28;20214;-92
2022/01/14 14:03:41;;;;;;;49.70;25.23;;;5.90;99.90;;;;;;4995580;28;20508;-94
2022/01/14 14:06:14;;;;;;;60.97;27.53;;;5.90;99.90;;;;;;4995287;28;20187;-93
2022/01/14 14:16:56;;;;;;;46.70;22.53;;;6.00;99.90;;;;;;4988949;28;20743;-93
2022/01/14 14:19:23;;;;;;;53.70;24.37;;;6.00;99.90;;;;;;4975654;28;20252;-93
2022/01/14 14:22:15;;;;;;;47.83;24.73;;;6.00;99.90;;;;;;4975675;28;20271;-93
2022/01/14 14:25:01;;;;;;;55.60;24.60;;;6.00;99.90;;;;;;4974823;28;20212;-94
2022/01/14 14:27:28;;;;;;;48.60;24.00;;;6.00;99.90;;;;;;4992559;28;20619;-93
2022/01/14 14:29:58;;;;;;;52.83;23.27;;;6.00;99.90;;;;;;4975544;28;20188;-93
2022/01/14 14:32:30;;;;;;;49.53;23.13;;;6.10;99.90;;;;;;4975891;28;20188;-93
2022/01/14 14:35:03;;;;;;;53.33;24.80;;;6.10;99.90;;;;;;4975352;28;20230;-93
2022/01/14 14:37:37;;;;;;;52.07;24.60;;;6.00;99.90;;;;;;4975080;28;20627;-93
2022/01/14 14:40:14;;;;;;;47.73;24.67;;;5.90;99.90;;;;;;4994771;28;20207;-95
2022/01/14 14:42:45;;;;;;;55.43;25.60;;;5.90;99.90;;;;;;4994542;28;20310;-91
2022/01/14 14:45:12;;;;;;;57.07;26.80;;;5.90;99.90;;;;;;4994885;28;20172;-92
2022/01/14 14:47:38;;;;;;;53.47;25.50;;;5.80;99.90;;;;;;4994697;28;20184;-92
2022/01/14 14:50:06;;;;;;;56.67;24.80;;;5.80;99.90;;;;;;4983810;28;20185;-92
2022/01/14 14:52:34;;;;;;;54.80;24.70;;;5.80;99.90;;;;;;4986969;28;20187;-96
2022/01/14 14:55:00;;;;;;;48.60;23.53;;;5.90;99.90;;;;;;4998886;28;20187;-93
2022/01/14 14:57:26;;;;;;;49.33;24.20;;;6.00;99.90;;;;;;4990581;28;20263;-93
2022/01/14 14:59:52;;;;;;;51.40;25.07;;;6.00;99.90;;;;;;4994827;28;20614;-94
2022/01/14 15:02:18;;;;;;;51.93;24.60;;;6.00;99.90;;;;;;4999014;28;20186;-93
2022/01/14 15:04:44;;;;;;;52.20;24.13;;;6.00;99.90;;;;;;4997063;28;20280;-93
2022/01/14 15:07:10;;;;;;;47.40;24.70;;;6.00;99.90;;;;;;4998528;28;20215;-93
2022/01/14 15:09:36;;;;;;;49.70;25.30;;;6.10;99.90;;;;;;4998501;28;20230;-93
2022/01/14 15:12:06;;;;;;;57.27;26.17;;;6.00;99.90;;;;;;4998129;28;20200;-93
2022/01/14 15:14:33;;;;;;;48.87;25.10;;;5.90;99.90;;;;;;4997661;28;20207;-92
2022/01/14 15:19:32;;;;;;;57.23;26.90;;;5.90;99.90;;;;;;4999113;28;20266;-92
2022/01/14 15:21:58;;;;;;;48.93;24.90;;;5.70;99.90;;;;;;4997866;28;20196;-94
2022/01/14 15:24:24;;;;;;;59.40;25.43;;;5.80;99.90;;;;;;4997485;28;20184;-94
2022/01/14 15:26:50;;;;;;;51.63;25.43;;;5.80;99.90;;;;;;4998089;28;20266;-94
2022/01/14 15:29:16;;;;;;;48.60;25.20;;;6.00;99.90;;;;;;4997716;28;20195;-93
2022/01/14 15:31:42;;;;;;;54.93;25.10;;;5.90;99.90;;;;;;4997447;28;20192;-94
2022/01/14 15:34:07;;;;;;;56.93;27.03;;;5.80;99.90;;;;;;4997434;28;20223;-93
2022/01/14 15:36:33;;;;;;;53.60;25.20;;;5.80;99.90;;;;;;4996922;28;20187;-94
2022/01/14 15:39:00;;;;;;;58.10;26.27;;;5.70;99.90;;;;;;4993309;28;20203;-93
2022/01/14 15:41:29;;;;;;;51.63;24.97;;;5.70;99.90;;;;;;4997286;28;20290;-93
2022/01/14 15:44:00;;;;;;;50.03;25.37;;;5.70;99.90;;;;;;4997065;28;20234;-94
2022/01/14 15:46:27;;;;;;;54.00;26.03;;;5.70;99.90;;;;;;4982385;28;20183;-92
2022/01/14 15:48:54;;;;;;;56.37;25.07;;;5.80;99.90;;;;;;4998665;28;20176;-94
2022/01/14 15:51:24;;;;;;;48.67;24.40;;;5.80;99.90;;;;;;4997586;28;20210;-93
2022/01/14 15:53:52;;;;;;;50.10;23.30;;;5.80;99.90;;;;;;4982398;28;20184;-93
2022/01/14 15:56:17;;;;;;;46.63;24.87;;;5.80;99.90;;;;;;4991853;28;20198;-94
2022/01/14 15:58:43;;;;;;;46.37;24.17;;;5.80;99.90;;;;;;4997696;28;20518;-93
2022/01/14 16:01:09;;;;;;;46.37;24.33;;;5.90;99.90;;;;;;4996142;28;20307;-92
2022/01/14 16:03:37;;;;;;;45.50;23.30;;;5.80;99.90;;;;;;4996053;28;20198;-93
2022/01/14 16:06:03;;;;;;;44.70;23.00;;;5.90;99.90;;;;;;4977134;28;20188;-94
2022/01/14 16:08:29;;;;;;;44.30;23.70;;;5.80;99.90;;;;;;4983659;28;20195;-93
2022/01/14 16:10:55;;;;;;;44.80;22.97;;;5.80;99.90;;;;;;4997485;28;20184;-94
2022/01/14 16:13:21;;;;;;;43.27;22.77;;;5.90;99.90;;;;;;4997125;28;20176;-94
2022/01/14 16:15:47;;;;;;;43.83;22.03;;;6.00;99.90;;;;;;4997157;28;20195;-93
2022/01/14 16:18:13;;;;;;;47.40;23.43;;;6.00;99.90;;;;;;4996358;28;20188;-94
2022/01/14 16:20:39;;;;;;;45.10;23.93;;;6.00;99.90;;;;;;4996540;28;20219;-93
2022/01/14 16:23:04;;;;;;;52.17;25.27;;;5.80;99.90;;;;;;4996744;28;20198;-94
2022/01/14 16:25:31;;;;;;;46.43;24.77;;;5.90;99.90;;;;;;4997793;28;20634;-94
2022/01/14 16:27:58;;;;;;;45.77;23.33;;;6.00;99.90;;;;;;4995811;28;20176;-93
2022/01/14 16:30:24;;;;;;;41.97;22.67;;;6.00;99.90;;;;;;4997045;28;20615;-94
2022/01/14 16:32:51;;;;;;;46.27;24.37;;;5.90;99.90;;;;;;4980996;28;20181;-94
2022/01/14 16:35:17;;;;;;;43.87;23.57;;;6.00;99.90;;;;;;4995538;28;20514;-93
2022/01/14 16:37:45;;;;;;;42.03;22.20;;;5.90;99.90;;;;;;4995769;28;20674;-93
2022/01/14 16:40:13;;;;;;;53.17;25.50;;;5.80;99.90;;;;;;4995709;28;20693;-93
2022/01/14 16:42:40;;;;;;;45.43;23.13;;;5.80;99.90;;;;;;4996630;28;20219;-93
2022/01/14 16:45:08;;;;;;;46.90;24.33;;;5.90;99.90;;;;;;4995646;28;20187;-94
2022/01/14 16:47:34;;;;;;;52.97;24.27;;;5.90;99.90;;;;;;4995691;28;20203;-93
2022/01/14 16:50:02;;;;;;;48.13;24.00;;;5.90;99.90;;;;;;4996215;28;20180;-93
2022/01/14 16:52:28;;;;;;;43.27;23.63;;;5.90;99.90;;;;;;4995310;28;20191;-94
2022/01/14 16:54:54;;;;;;;45.60;22.87;;;5.90;99.90;;;;;;4996332;28;20184;-93
2022/01/14 16:57:21;;;;;;;49.27;24.40;;;5.90;99.90;;;;;;4996619;28;20187;-94
2022/01/14 16:59:49;;;;;;;37.60;21.87;;;6.00;99.90;;;;;;4995940;28;20266;-94
2022/01/14 17:02:16;;;;;;;45.13;23.43;;;6.00;99.90;;;;;;4995295;28;20262;-93
2022/01/14 17:04:42;;;;;;;44.63;24.20;;;6.00;99.90;;;;;;4977897;28;20191;-94
2022/01/14 17:07:09;;;;;;;43.60;24.07;;;6.00;99.90;;;;;;4995900;28;20187;-93
2022/01/14 17:09:38;;;;;;;44.00;24.87;;;6.00;99.90;;;;;;4996136;28;20180;-94
2022/01/14 17:12:05;;;;;;;47.33;24.10;;;6.00;99.90;;;;;;4996126;28;20179;-94
2022/01/14 17:14:31;;;;;;;45.73;24.17;;;6.00;99.90;;;;;;4996023;28;20164;-95
2022/01/14 17:16:57;;;;;;;43.30;22.43;;;5.90;99.90;;;;;;4994939;28;20208;-93
2022/01/14 17:19:23;;;;;;;45.87;24.97;;;5.90;99.90;;;;;;4995157;28;20645;-93
2022/01/14 17:21:49;;;;;;;42.77;24.20;;;5.90;99.90;;;;;;4995861;28;20319;-94
2022/01/14 17:24:15;;;;;;;45.80;24.17;;;5.90;99.90;;;;;;4995785;28;20211;-92
2022/01/14 17:26:41;;;;;;;43.67;23.77;;;5.90;99.90;;;;;;4995977;28;20184;-94
2022/01/14 17:29:06;;;;;;;42.33;23.73;;;5.80;99.90;;;;;;4995946;28;20577;-94
2022/01/14 17:31:32;;;;;;;44.80;23.50;;;5.80;99.90;;;;;;4995963;28;20234;-94
2022/01/14 17:33:59;;;;;;;41.53;23.20;;;5.90;99.90;;;;;;4995889;28;20172;-94
2022/01/14 17:36:25;;;;;;;42.63;23.53;;;6.00;99.90;;;;;;4995551;28;20183;-95
2022/01/14 17:38:51;;;;;;;39.53;22.73;;;5.90;99.90;;;;;;4991903;28;20173;-93
2022/01/14 17:41:19;;;;;;;39.30;23.80;;;5.90;99.90;;;;;;4976541;28;20228;-94
2022/01/14 17:43:46;;;;;;;40.77;22.60;;;5.90;99.90;;;;;;4975658;28;20229;-94
2022/01/14 17:46:15;;;;;;;41.00;22.73;;;5.90;99.90;;;;;;4975919;28;20177;-94
2022/01/14 17:48:42;;;;;;;42.57;22.87;;;5.90;99.90;;;;;;4975776;28;20177;-94
2022/01/14 17:51:09;;;;;;;38.33;21.57;;;5.90;99.90;;;;;;4994422;28;20198;-94
2022/01/14 17:53:35;;;;;;;36.67;21.57;;;6.00;99.90;;;;;;4995032;28;20172;-94
2022/01/14 17:56:00;;;;;;;40.63;23.37;;;6.10;99.90;;;;;;4994646;28;20199;-94
2022/01/14 17:58:26;;;;;;;40.63;22.87;;;6.00;99.90;;;;;;4994866;28;20180;-93
2022/01/14 18:00:53;;;;;;;42.17;22.90;;;5.90;99.90;;;;;;4995473;28;20218;-94
2022/01/14 18:03:19;;;;;;;39.83;21.97;;;5.90;99.90;;;;;;4994348;28;20211;-94
2022/01/14 18:05:45;;;;;;;44.50;23.57;;;5.80;99.90;;;;;;4995226;28;20194;-94
2022/01/14 18:08:11;;;;;;;41.47;22.87;;;5.90;99.90;;;;;;4995090;28;20172;-94
2022/01/14 18:10:37;;;;;;;39.20;22.20;;;6.00;99.90;;;;;;4995055;28;20180;-95
2022/01/14 18:13:14;;;;;;;38.57;23.13;;;6.00;99.90;;;;;;4996319;28;20610;-95
2022/01/14 18:15:41;;;;;;;40.83;22.57;;;5.90;99.90;;;;;;4995015;28;20227;-94
2022/01/14 18:18:08;;;;;;;40.10;23.23;;;5.90;99.90;;;;;;4994263;28;20234;-94
2022/01/14 18:20:34;;;;;;;46.40;23.63;;;5.90;99.90;;;;;;4994830;28;20204;-94
2022/01/14 18:23:00;;;;;;;41.50;22.83;;;5.90;99.90;;;;;;4979148;28;20211;-94
2022/01/14 18:25:27;;;;;;;40.37;23.20;;;6.00;99.90;;;;;;4994681;28;20265;-94
2022/01/14 18:27:53;;;;;;;38.40;22.67;;;6.00;99.90;;;;;;4994440;28;20223;-96
2022/01/14 18:30:19;;;;;;;42.80;24.03;;;6.00;99.90;;;;;;4994669;28;20184;-96
2022/01/14 18:32:53;;;;;;;48.27;23.93;;;5.90;99.90;;;;;;4995164;28;20230;-95
2022/01/14 18:35:19;;;;;;;44.93;24.20;;;5.90;99.90;;;;;;4995002;28;20599;-94
2022/01/14 18:37:45;;;;;;;42.87;23.63;;;5.90;99.90;;;;;;4994966;28;20186;-95
2022/01/14 18:40:12;;;;;;;41.40;24.37;;;5.90;99.90;;;;;;4995164;28;20286;-94
2022/01/14 18:42:39;;;;;;;41.10;23.60;;;6.00;99.90;;;;;;4985801;28;20239;-95
2022/01/14 18:45:20;;;;;;;41.10;23.97;;;6.00;99.90;;;;;;4979716;28;20190;-94
2022/01/14 18:47:47;;;;;;;37.43;21.90;;;6.00;99.90;;;;;;4994645;28;20191;-95
2022/01/14 18:50:13;;;;;;;39.97;22.83;;;6.00;99.90;;;;;;4994555;28;20187;-96
2022/01/14 18:52:39;;;;;;;40.97;22.87;;;5.90;99.90;;;;;;4994742;28;20241;-95
2022/01/14 18:55:12;;;;;;;41.43;22.90;;;5.90;99.90;;;;;;4978207;28;20196;-95
2022/01/14 18:57:39;;;;;;;41.87;24.00;;;5.90;99.90;;;;;;4995149;28;20176;-95
2022/01/14 19:00:07;;;;;;;41.10;23.27;;;5.90;99.90;;;;;;4994843;28;20207;-96
2022/01/14 19:02:33;;;;;;;43.80;23.83;;;5.90;99.90;;;;;;4994904;28;20187;-96
2022/01/14 19:05:15;;;;;;;39.13;22.10;;;5.90;99.90;;;;;;4994949;28;20199;-95
2022/01/14 19:07:43;;;;;;;42.13;22.80;;;5.90;99.90;;;;;;4995110;28;20196;-95
2022/01/14 19:10:10;;;;;;;34.97;22.30;;;5.90;99.90;;;;;;4994817;28;20172;-96
2022/01/14 19:12:37;;;;;;;40.90;23.23;;;5.90;99.90;;;;;;4992634;28;20179;-96
2022/01/14 19:15:05;;;;;;;40.43;22.03;;;6.00;99.90;;;;;;4986374;28;20188;-95
2022/01/14 19:17:31;;;;;;;40.50;22.90;;;5.90;99.90;;;;;;4991234;28;20275;-95
2022/01/14 19:19:57;;;;;;;36.67;21.87;;;5.90;99.90;;;;;;4984196;28;20227;-96
2022/01/14 19:22:42;;;;;;;41.20;23.33;;;6.00;99.90;;;;;;4987922;28;20200;-95
2022/01/14 19:25:12;;;;;;;42.37;24.07;;;6.00;99.90;;;;;;4991943;28;20187;-96
2022/01/14 19:27:53;;;;;;;42.60;22.97;;;5.90;99.90;;;;;;4994362;28;20257;-96
2022/01/14 19:30:19;;;;;;;40.67;24.30;;;6.00;99.90;;;;;;4975057;28;20177;-96
2022/01/14 19:32:45;;;;;;;39.97;22.97;;;6.00;99.90;;;;;;4974952;28;20173;-95
2022/01/14 19:35:22;;;;;;;40.10;22.40;;;6.00;99.90;;;;;;4974705;28;20191;-96
2022/01/14 19:37:48;;;;;;;38.17;21.87;;;6.00;99.90;;;;;;4975119;28;20559;-96
2022/01/14 19:40:14;;;;;;;37.53;21.90;;;6.00;99.90;;;;;;4976866;28;20227;-95
2022/01/14 19:42:40;;;;;;;38.13;22.20;;;6.00;99.90;;;;;;4978479;28;20239;-95
2022/01/14 19:45:11;;;;;;;38.83;22.20;;;6.00;99.90;;;;;;4979211;28;20180;-96
2022/01/14 19:47:38;;;;;;;38.63;20.77;;;6.00;99.90;;;;;;4978691;28;20618;-96
2022/01/14 19:50:06;;;;;;;39.53;21.97;;;6.10;99.90;;;;;;4978917;28;20228;-96
2022/01/14 19:52:32;;;;;;;38.17;23.00;;;6.10;99.90;;;;;;4978659;28;20272;-96
2022/01/14 19:54:59;;;;;;;44.53;25.47;;;6.00;99.90;;;;;;4993181;28;20234;-96
2022/01/14 19:57:28;;;;;;;43.73;24.90;;;6.00;99.90;;;;;;4997365;28;20261;-95
2022/01/14 19:59:54;;;;;;;42.87;25.00;;;6.00;99.90;;;;;;4991831;28;20256;-96
2022/01/14 20:02:20;;;;;;;38.80;23.63;;;6.00;99.90;;;;;;4980983;28;20290;-95
2022/01/14 20:04:47;;;;;;;35.60;22.63;;;6.10;99.90;;;;;;4994343;28;20180;-96
2022/01/14 20:07:13;;;;;;;43.83;23.43;;;6.10;99.90;;;;;;4997618;28;20231;-96
2022/01/14 20:09:39;;;;;;;38.80;23.23;;;6.10;99.90;;;;;;4978888;28;20638;-96
2022/01/14 20:12:05;;;;;;;38.53;23.43;;;6.10;99.90;;;;;;4978051;28;20185;-96
2022/01/14 20:14:32;;;;;;;41.00;23.73;;;6.10;99.90;;;;;;4982544;28;20398;-95
2022/01/14 20:16:58;;;;;;;36.17;22.60;;;6.10;99.90;;;;;;4997713;28;20172;-95
2022/01/14 20:19:24;;;;;;;40.07;23.17;;;6.10;99.90;;;;;;4997389;28;20676;-95
2022/01/14 20:21:50;;;;;;;37.73;21.63;;;6.00;99.90;;;;;;4996832;28;20218;-95
2022/01/14 20:24:20;;;;;;;37.23;22.47;;;6.00;99.90;;;;;;4997647;28;20183;-95
2022/01/14 20:26:45;;;;;;;36.20;19.83;;;6.00;99.90;;;;;;4997569;28;20195;-96
2022/01/14 20:29:11;;;;;;;31.40;18.23;;;6.00;99.90;;;;;;4997936;28;20176;-95
2022/01/14 20:31:37;;;;;;;30.10;17.70;;;5.90;99.90;;;;;;4997460;28;20179;-95
2022/01/14 20:34:06;;;;;;;27.50;15.87;;;5.90;99.90;;;;;;4997191;28;20176;-95
2022/01/14 20:36:32;;;;;;;26.93;15.23;;;5.90;99.90;;;;;;4997175;28;20180;-96
2022/01/14 20:38:58;;;;;;;28.43;15.07;;;5.90;99.90;;;;;;4996983;28;20176;-95
2022/01/14 20:41:26;;;;;;;25.30;13.63;;;5.80;99.90;;;;;;4995839;28;20208;-96
2022/01/14 20:44:00;;;;;;;23.53;12.87;;;5.80;99.90;;;;;;4996813;28;20324;-95
2022/01/14 20:46:37;;;;;;;26.17;12.60;;;5.90;99.90;;;;;;4996881;28;20215;-95
2022/01/14 20:49:06;;;;;;;24.57;12.97;;;6.00;99.90;;;;;;4996820;28;20991;-95
2022/01/14 20:51:31;;;;;;;28.10;13.17;;;5.90;99.90;;;;;;4996886;28;20184;-95
2022/01/14 20:53:59;;;;;;;23.20;13.53;;;5.90;99.90;;;;;;4996668;28;20179;-95
2022/01/14 20:56:31;;;;;;;25.20;12.50;;;5.90;99.90;;;;;;4996383;28;20195;-95
2022/01/14 20:58:58;;;;;;;25.50;11.80;;;5.80;99.90;;;;;;4997017;28;20184;-95
2022/01/14 21:01:49;;;;;;;23.40;10.50;;;5.80;99.90;;;;;;4990252;28;20239;-94
2022/01/14 21:04:14;;;;;;;23.43;8.90;;;5.80;99.90;;;;;;4996760;28;20508;-95
2022/01/14 21:06:50;;;;;;;21.80;8.67;;;5.80;99.90;;;;;;4996350;28;20184;-95
2022/01/14 21:09:18;;;;;;;17.70;8.57;;;5.70;99.90;;;;;;4995928;28;20191;-94
2022/01/14 21:11:44;;;;;;;23.23;7.67;;;5.70;99.90;;;;;;4996655;28;20176;-95
2022/01/14 21:14:11;;;;;;;21.03;7.47;;;5.60;99.90;;;;;;4996619;28;20267;-96
2022/01/14 21:16:37;;;;;;;21.43;9.33;;;5.40;99.90;;;;;;4996217;28;20227;-95
2022/01/14 21:19:03;;;;;;;24.47;10.60;;;5.40;99.90;;;;;;4996792;28;20180;-95
2022/01/14 21:21:29;;;;;;;20.43;8.87;;;5.30;99.90;;;;;;4996670;28;20208;-95
2022/01/14 21:23:55;;;;;;;22.23;7.93;;;5.30;99.90;;;;;;4996515;28;20518;-96
2022/01/14 21:26:23;;;;;;;22.50;7.57;;;5.30;99.90;;;;;;4995563;28;20516;-95
2022/01/14 21:28:49;;;;;;;17.80;7.03;;;5.30;99.90;;;;;;4976895;28;20224;-96
2022/01/14 21:31:15;;;;;;;21.33;7.70;;;5.20;99.90;;;;;;4986198;28;20199;-96
2022/01/14 21:34:02;;;;;;;24.17;8.07;;;5.10;99.90;;;;;;5000660;28;20184;-96
2022/01/14 21:36:28;;;;;;;22.07;6.73;;;5.10;99.90;;;;;;4986352;28;20188;-96
2022/01/14 21:38:59;;;;;;;22.27;6.67;;;5.00;99.90;;;;;;4995283;28;20184;-96
2022/01/14 21:41:25;;;;;;;26.27;6.37;;;5.00;99.90;;;;;;4995748;28;20218;-95
2022/01/14 21:43:52;;;;;;;20.63;5.70;;;5.00;99.90;;;;;;4994606;28;20242;-96
2022/01/14 21:46:20;;;;;;;22.67;6.47;;;4.90;99.90;;;;;;4996411;28;20187;-96
2022/01/14 21:48:46;;;;;;;17.73;6.40;;;4.90;99.90;;;;;;4995186;28;20211;-96
2022/01/14 21:51:12;;;;;;;19.47;5.30;;;4.80;99.90;;;;;;4996650;28;20230;-96
2022/01/14 21:53:38;;;;;;;23.10;6.00;;;4.70;99.90;;;;;;4996408;28;20303;-96
2022/01/14 21:56:07;;;;;;;15.60;4.87;;;4.70;99.90;;;;;;4996089;28;20245;-96
2022/01/14 21:58:33;;;;;;;27.07;5.70;;;4.60;99.90;;;;;;4995854;28;20188;-96
2022/01/14 22:01:01;;;;;;;33.47;6.07;;;4.60;99.90;;;;;;5002241;28;20227;-96
2022/01/14 22:03:28;;;;;;;22.17;5.00;;;4.60;99.90;;;;;;4999012;28;20191;-96
2022/01/14 22:06:36;;;;;;;19.60;4.97;;;4.50;99.90;;;;;;4998871;28;20188;-96
2022/01/14 22:09:03;;;;;;;18.20;5.70;;;4.50;99.90;;;;;;4997839;28;20184;-96
2022/01/14 22:11:32;;;;;;;22.53;5.27;;;4.40;99.90;;;;;;4997981;28;20242;-96
2022/01/14 22:14:05;;;;;;;20.00;4.73;;;4.40;99.90;;;;;;4998359;28;20191;-96
2022/01/14 22:16:56;;;;;;;14.00;4.57;;;4.40;99.90;;;;;;4985257;28;20195;-96
2022/01/14 22:19:27;;;;;;;17.03;4.63;;;4.40;99.90;;;;;;5000018;28;20199;-96
2022/01/14 22:21:56;;;;;;;19.03;5.73;;;4.30;99.90;;;;;;4997602;28;20274;-96
2022/01/14 22:24:23;;;;;;;19.93;5.60;;;4.30;99.90;;;;;;4995540;28;20353;-96
2022/01/14 22:27:06;;;;;;;16.53;4.30;;;4.30;99.90;;;;;;4997653;28;20188;-96
2022/01/14 22:29:33;;;;;;;23.90;4.27;;;4.20;99.90;;;;;;4998186;28;20529;-96
2022/01/14 22:32:10;;;;;;;19.47;4.17;;;4.20;99.90;;;;;;4979653;28;20184;-96
2022/01/14 22:34:36;;;;;;;21.77;4.43;;;4.20;99.90;;;;;;5011368;28;20188;-96
2022/01/14 22:37:09;;;;;;;25.17;3.80;;;4.20;99.90;;;;;;4997939;28;20674;-96
2022/01/14 22:39:36;;;;;;;22.33;3.93;;;4.10;99.90;;;;;;5002337;28;20192;-96
2022/01/14 22:42:04;;;;;;;11.47;3.83;;;4.10;99.90;;;;;;5000199;28;20250;-96
2022/01/14 22:44:36;;;;;;;14.53;3.83;;;4.10;99.90;;;;;;4998671;28;20228;-96
2022/01/14 22:47:18;;;;;;;15.20;4.00;;;4.10;99.90;;;;;;5000538;28;20287;-96
2022/01/14 22:49:49;;;;;;;14.07;3.57;;;4.00;99.90;;;;;;5001349;28;20196;-96
2022/01/14 22:52:15;;;;;;;19.63;4.87;;;3.90;99.90;;;;;;5004228;28;20218;-96
2022/01/14 22:54:42;;;;;;;12.93;4.87;;;3.90;99.90;;;;;;5001878;28;20218;-96
2022/01/14 22:57:10;;;;;;;28.60;5.33;;;3.90;99.90;;;;;;4983871;28;20627;-96
2022/01/14 22:59:53;;;;;;;14.97;5.30;;;3.80;99.90;;;;;;5005661;28;20203;-96
2022/01/14 23:02:27;;;;;;;14.17;5.53;;;3.70;99.90;;;;;;5007007;28;20216;-96
2022/01/14 23:04:56;;;;;;;33.33;7.53;;;3.70;99.90;;;;;;4985050;28;20626;-96
2022/01/14 23:07:47;;;;;;;40.67;5.83;;;3.70;99.90;;;;;;5000552;28;20223;-96
2022/01/14 23:10:26;;;;;;;61.47;7.37;;;3.60;99.90;;;;;;5011042;28;20198;-97
2022/01/14 23:13:01;;;;;;;20.83;6.77;;;3.60;99.90;;;;;;5009716;28;20183;-96
2022/01/14 23:15:52;;;;;;;10.70;7.37;;;3.50;99.90;;;;;;5010541;28;20190;-96
2022/01/14 23:18:38;;;;;;;22.90;6.60;;;3.60;99.90;;;;;;5009743;28;20184;-96
